Time;durP1;ratioP1;P1;durP2;ratioP2;P2;SDS_P1;SDS_P2;PMS_P1;PMS_P2;Temp;Humidity;BMP_temperature;BMP_pressure;BME280_temperature;BME280_humidity;BME280_pressure;Samples;Min_cycle;Max_cycle;Signal;HPM_P1;HPM_P2
2022/09/03 00:01:51;;;;;;;5.40;5.00;;;28.10;32.70;;;;;;4992498;28;20413;-84
2022/09/03 00:04:25;;;;;;;5.03;4.63;;;28.10;32.80;;;;;;4992789;28;20456;-84
2022/09/03 00:07:00;;;;;;;5.43;5.03;;;28.10;32.80;;;;;;4991275;28;20450;-84
2022/09/03 00:09:29;;;;;;;5.20;4.70;;;28.10;32.80;;;;;;4998536;28;20424;-84
2022/09/03 00:12:03;;;;;;;6.10;5.50;;;28.00;32.80;;;;;;4990161;28;20504;-84
2022/09/03 00:14:36;;;;;;;5.77;5.30;;;28.00;32.80;;;;;;4991852;28;20478;-85
2022/09/03 00:17:07;;;;;;;5.10;4.63;;;28.00;32.90;;;;;;5000330;28;20447;-84
2022/09/03 00:19:37;;;;;;;6.07;5.57;;;28.00;32.90;;;;;;5005542;28;20452;-84
2022/09/03 00:22:10;;;;;;;5.70;5.20;;;27.90;32.90;;;;;;4998382;28;20435;-84
2022/09/03 00:24:39;;;;;;;5.63;5.23;;;27.90;32.90;;;;;;5005790;28;20496;-84
2022/09/03 00:27:11;;;;;;;5.90;5.40;;;27.90;32.90;;;;;;4997868;28;20435;-84
2022/09/03 00:29:41;;;;;;;4.93;4.53;;;27.80;32.90;;;;;;4976002;28;20420;-84
2022/09/03 00:32:13;;;;;;;5.80;5.30;;;27.80;32.90;;;;;;4976928;28;20517;-84
2022/09/03 00:34:43;;;;;;;5.80;5.27;;;27.70;33.00;;;;;;4982699;28;20553;-84
2022/09/03 00:37:13;;;;;;;6.03;5.53;;;27.70;33.00;;;;;;4977140;28;20456;-84
2022/09/03 00:39:42;;;;;;;6.27;5.77;;;27.70;33.10;;;;;;4983602;28;20442;-84
2022/09/03 00:42:24;;;;;;;6.77;5.93;;;27.70;33.10;;;;;;4975840;28;20428;-84
2022/09/03 00:45:06;;;;;;;5.90;5.30;;;27.60;33.00;;;;;;4992248;28;20470;-84
2022/09/03 00:47:39;;;;;;;6.50;5.83;;;27.60;33.00;;;;;;4975857;28;20873;-84
2022/09/03 00:50:10;;;;;;;6.80;6.10;;;27.60;33.10;;;;;;4974233;28;20453;-84
2022/09/03 00:52:45;;;;;;;6.83;6.23;;;27.50;33.10;;;;;;4996031;28;20448;-83
2022/09/03 00:55:22;;;;;;;7.27;6.57;;;27.50;33.10;;;;;;4987533;28;20448;-84
2022/09/03 00:57:57;;;;;;;7.00;6.40;;;27.50;33.20;;;;;;4975294;28;20424;-83
2022/09/03 01:00:25;;;;;;;7.37;6.30;;;27.40;33.10;;;;;;4986358;28;20482;-83
2022/09/03 01:03:06;;;;;;;7.80;7.10;;;27.40;33.10;;;;;;4992969;28;20465;-83
2022/09/03 01:05:44;;;;;;;7.03;6.40;;;27.30;33.20;;;;;;5019896;28;20473;-83
2022/09/03 01:08:21;;;;;;;7.43;6.73;;;27.30;33.20;;;;;;4976402;28;20472;-83
2022/09/03 01:10:53;;;;;;;7.43;6.73;;;27.30;33.20;;;;;;4976991;28;20446;-83
2022/09/03 01:13:22;;;;;;;6.90;6.30;;;27.30;33.30;;;;;;4982528;28;20436;-84
2022/09/03 01:15:55;;;;;;;7.80;7.10;;;27.20;33.20;;;;;;4997067;28;20508;-83
2022/09/03 01:18:25;;;;;;;7.23;6.50;;;27.20;33.20;;;;;;5000105;28;20453;-83
2022/09/03 01:20:59;;;;;;;10.80;7.50;;;27.10;33.30;;;;;;4997276;28;20466;-83
2022/09/03 01:23:49;;;;;;;7.97;7.17;;;27.20;33.30;;;;;;4993650;28;20431;-83
2022/09/03 01:26:29;;;;;;;8.00;7.20;;;27.10;33.30;;;;;;4991259;28;20452;-84
2022/09/03 01:29:09;;;;;;;7.80;7.00;;;27.00;33.30;;;;;;4990742;28;20517;-84
2022/09/03 01:31:42;;;;;;;8.50;7.60;;;27.00;33.40;;;;;;5005259;28;20431;-83
2022/09/03 01:34:16;;;;;;;8.00;7.20;;;27.00;33.40;;;;;;4979379;28;20516;-84
2022/09/03 01:36:48;;;;;;;8.60;7.80;;;27.00;33.40;;;;;;4983851;28;20437;-84
2022/09/03 01:39:19;;;;;;;8.93;8.03;;;26.90;33.40;;;;;;4985813;28;20449;-83
2022/09/03 01:44:43;;;;;;;9.73;8.73;;;26.80;33.30;;;;;;4979735;28;20443;-83
2022/09/03 01:47:16;;;;;;;9.80;8.73;;;26.80;33.40;;;;;;4978390;28;20457;-84
2022/09/03 01:49:47;;;;;;;11.40;9.47;;;26.80;33.40;;;;;;4976625;28;20467;-83
2022/09/03 01:52:18;;;;;;;11.43;8.77;;;26.80;33.50;;;;;;4977201;28;20449;-82
2022/09/03 01:54:54;;;;;;;9.37;8.37;;;26.70;33.40;;;;;;4987289;28;20522;-83
2022/09/03 01:57:33;;;;;;;9.67;8.67;;;26.70;33.40;;;;;;4983888;28;20453;-83
2022/09/03 02:00:08;;;;;;;9.50;8.17;;;26.70;33.50;;;;;;4986407;28;20428;-82
2022/09/03 02:02:36;;;;;;;8.60;7.70;;;26.60;33.40;;;;;;4990924;28;20450;-84
2022/09/03 02:05:08;;;;;;;9.10;8.20;;;26.60;33.40;;;;;;4982448;28;20474;-84
2022/09/03 02:07:37;;;;;;;9.60;8.30;;;26.60;33.40;;;;;;4984632;28;20440;-82
2022/09/03 02:10:07;;;;;;;10.80;8.90;;;26.60;33.50;;;;;;5000175;28;20932;-84
2022/09/03 02:12:36;;;;;;;10.63;7.87;;;26.60;33.40;;;;;;4992228;28;20442;-82
2022/09/03 02:15:09;;;;;;;9.50;8.20;;;26.50;33.60;;;;;;5004765;28;21069;-83
2022/09/03 02:17:37;;;;;;;9.00;8.10;;;26.50;33.50;;;;;;4994863;28;20481;-83
2022/09/03 02:20:09;;;;;;;9.80;8.43;;;26.50;33.60;;;;;;4987852;28;20828;-84
2022/09/03 02:22:37;;;;;;;9.17;8.13;;;26.40;33.60;;;;;;4984467;28;20455;-81
2022/09/03 02:25:06;;;;;;;9.10;8.20;;;26.40;33.60;;;;;;4993769;28;20491;-83
2022/09/03 02:27:34;;;;;;;10.37;8.70;;;26.40;33.60;;;;;;5000457;28;20483;-83
2022/09/03 02:30:02;;;;;;;9.10;7.97;;;26.40;33.60;;;;;;4992340;28;20454;-83
2022/09/03 02:32:32;;;;;;;10.20;9.03;;;26.40;33.60;;;;;;4987278;28;20428;-84
2022/09/03 02:35:00;;;;;;;9.53;8.20;;;26.30;33.60;;;;;;4989858;28;20477;-83
2022/09/03 02:37:28;;;;;;;9.23;7.07;;;26.30;33.60;;;;;;4995138;28;20452;-83
2022/09/03 02:39:56;;;;;;;8.33;7.40;;;26.30;33.60;;;;;;4996615;28;20557;-83
2022/09/03 02:42:24;;;;;;;9.07;8.13;;;26.20;33.60;;;;;;4994338;28;20476;-83
2022/09/03 02:44:53;;;;;;;9.40;7.57;;;26.20;33.70;;;;;;5002982;28;20523;-82
2022/09/03 02:47:22;;;;;;;8.10;7.30;;;26.20;33.60;;;;;;4988949;28;20472;-81
2022/09/03 02:49:51;;;;;;;7.73;6.93;;;26.20;33.70;;;;;;5004681;28;20444;-84
2022/09/03 02:52:19;;;;;;;6.97;6.37;;;26.20;33.60;;;;;;4993919;28;20442;-84
2022/09/03 02:54:47;;;;;;;7.60;6.90;;;26.10;33.70;;;;;;4992153;28;20972;-82
2022/09/03 02:57:16;;;;;;;7.10;6.40;;;26.10;33.70;;;;;;4983931;28;20462;-81
2022/09/03 02:59:54;;;;;;;7.07;6.37;;;26.00;33.70;;;;;;4990448;28;20424;-84
2022/09/03 03:02:22;;;;;;;7.50;6.70;;;26.00;33.80;;;;;;4980890;28;20456;-83
2022/09/03 03:04:53;;;;;;;7.00;6.30;;;26.00;33.90;;;;;;4992123;28;20487;-83
2022/09/03 03:07:21;;;;;;;6.90;6.20;;;25.90;33.80;;;;;;4984604;28;20469;-83
2022/09/03 03:09:49;;;;;;;7.10;6.40;;;25.90;33.70;;;;;;4987315;28;20923;-82
2022/09/03 03:12:18;;;;;;;6.93;6.23;;;25.90;33.70;;;;;;4985392;28;20445;-83
2022/09/03 03:14:46;;;;;;;7.13;6.43;;;25.90;33.80;;;;;;4987701;28;20530;-82
2022/09/03 03:17:14;;;;;;;7.10;6.40;;;25.90;33.80;;;;;;4993518;28;20505;-83
2022/09/03 03:19:42;;;;;;;6.97;6.37;;;25.80;33.80;;;;;;5000309;28;20500;-82
2022/09/03 03:22:12;;;;;;;6.50;5.90;;;25.80;33.80;;;;;;4989886;28;20452;-83
2022/09/03 03:24:40;;;;;;;6.50;5.90;;;25.80;33.90;;;;;;5001711;28;20520;-83
2022/09/03 03:27:09;;;;;;;6.50;5.90;;;25.80;33.90;;;;;;4995321;28;20477;-84
2022/09/03 03:29:38;;;;;;;5.60;5.10;;;25.70;33.90;;;;;;4994382;28;20466;-83
2022/09/03 03:32:06;;;;;;;5.90;5.40;;;25.70;34.00;;;;;;4994919;28;20523;-83
2022/09/03 03:34:34;;;;;;;6.50;5.87;;;25.70;33.90;;;;;;4999487;28;20506;-82
2022/09/03 03:37:03;;;;;;;6.33;5.73;;;25.60;33.80;;;;;;5003350;28;20519;-83
2022/09/03 03:39:32;;;;;;;6.33;5.73;;;25.60;34.00;;;;;;4983555;28;20464;-83
2022/09/03 03:42:00;;;;;;;6.47;5.90;;;25.60;34.00;;;;;;4981576;28;20433;-83
2022/09/03 03:44:29;;;;;;;6.30;5.70;;;25.60;33.90;;;;;;4984318;28;20443;-84
2022/09/03 03:46:57;;;;;;;5.70;5.20;;;25.60;34.10;;;;;;4986287;28;20453;-84
2022/09/03 03:49:25;;;;;;;5.63;5.13;;;25.50;34.00;;;;;;4984355;28;20505;-83
2022/09/03 03:51:53;;;;;;;5.30;4.80;;;25.50;34.10;;;;;;4991395;28;20447;-82
2022/09/03 03:54:21;;;;;;;5.93;5.43;;;25.40;34.00;;;;;;5000521;28;20469;-82
2022/09/03 03:56:51;;;;;;;5.23;4.73;;;25.40;34.10;;;;;;4985102;28;20528;-82
2022/09/03 03:59:22;;;;;;;5.47;4.93;;;25.40;34.00;;;;;;5000356;28;20474;-82
2022/09/03 04:01:50;;;;;;;5.60;5.10;;;25.40;34.10;;;;;;4990221;28;20471;-84
2022/09/03 04:04:18;;;;;;;5.43;4.93;;;25.40;34.10;;;;;;4983920;28;20534;-84
2022/09/03 04:06:46;;;;;;;4.93;4.50;;;25.30;34.10;;;;;;4982844;28;20544;-83
2022/09/03 04:09:14;;;;;;;5.10;4.60;;;25.30;34.10;;;;;;4990001;28;20439;-84
2022/09/03 04:11:42;;;;;;;5.77;4.70;;;25.30;34.10;;;;;;4980425;28;20501;-82
2022/09/03 04:14:12;;;;;;;5.47;4.93;;;25.30;34.20;;;;;;4988940;28;20444;-82
2022/09/03 04:16:40;;;;;;;5.60;5.07;;;25.20;34.20;;;;;;4982368;28;20429;-83
2022/09/03 04:19:08;;;;;;;5.00;4.60;;;25.20;34.20;;;;;;4988589;28;20985;-83
2022/09/03 04:21:36;;;;;;;4.93;4.53;;;25.20;34.20;;;;;;4992094;28;20509;-82
2022/09/03 04:24:05;;;;;;;4.93;4.53;;;25.20;34.20;;;;;;4995205;28;20612;-84
2022/09/03 04:26:33;;;;;;;5.07;4.67;;;25.20;34.30;;;;;;4988875;28;20441;-83
2022/09/03 04:29:03;;;;;;;4.53;4.13;;;25.10;34.20;;;;;;4980875;28;20990;-83
2022/09/03 04:31:33;;;;;;;5.20;4.23;;;25.10;34.30;;;;;;4991737;28;20453;-83
2022/09/03 04:34:01;;;;;;;4.37;3.97;;;25.10;34.20;;;;;;4978689;28;20497;-83
2022/09/03 04:36:29;;;;;;;6.87;4.70;;;25.00;34.20;;;;;;4987247;28;20486;-83
2022/09/03 04:38:58;;;;;;;5.20;4.47;;;25.00;34.20;;;;;;4978500;28;20521;-84
2022/09/03 04:41:27;;;;;;;5.00;4.60;;;25.00;34.30;;;;;;4982144;28;20494;-82
2022/09/03 04:43:56;;;;;;;4.30;4.00;;;25.00;34.90;;;;;;4990450;28;20420;-83
2022/09/03 04:46:27;;;;;;;4.57;4.20;;;24.90;34.30;;;;;;4997351;28;20532;-82
2022/09/03 04:48:56;;;;;;;4.00;3.70;;;24.90;34.20;;;;;;4978773;28;20481;-83
2022/09/03 04:51:26;;;;;;;4.63;4.23;;;24.90;34.40;;;;;;4996013;28;20431;-83
2022/09/03 04:53:55;;;;;;;4.80;3.93;;;24.90;34.40;;;;;;4991100;28;20524;-83
2022/09/03 04:56:24;;;;;;;5.00;4.50;;;24.80;34.30;;;;;;4980597;28;20478;-82
2022/09/03 04:58:55;;;;;;;4.30;4.00;;;24.80;34.30;;;;;;4982383;28;20467;-82
2022/09/03 05:01:24;;;;;;;4.40;4.10;;;24.80;34.30;;;;;;4989334;28;20484;-82
2022/09/03 05:03:53;;;;;;;5.27;4.43;;;24.80;34.30;;;;;;4995130;28;20436;-83
2022/09/03 05:06:24;;;;;;;4.07;3.77;;;24.80;34.40;;;;;;4987557;28;20490;-82
2022/09/03 05:08:53;;;;;;;3.80;3.50;;;24.80;34.40;;;;;;4973966;28;20454;-82
2022/09/03 05:11:21;;;;;;;4.00;3.70;;;24.80;34.40;;;;;;4986814;28;20436;-82
2022/09/03 05:13:49;;;;;;;4.27;3.97;;;24.80;34.40;;;;;;4985887;28;20459;-83
2022/09/03 05:16:18;;;;;;;3.67;3.33;;;24.70;34.40;;;;;;4984337;28;20477;-82
2022/09/03 05:18:46;;;;;;;4.20;3.90;;;24.70;34.30;;;;;;4973721;28;20417;-82
2022/09/03 05:21:16;;;;;;;3.47;3.27;;;24.70;34.40;;;;;;4977112;28;20493;-83
2022/09/03 05:23:46;;;;;;;3.47;3.27;;;24.70;34.30;;;;;;4979214;28;20470;-84
2022/09/03 05:26:15;;;;;;;3.77;3.40;;;24.70;34.30;;;;;;4978770;28;20492;-84
2022/09/03 05:28:43;;;;;;;3.90;3.50;;;24.70;34.20;;;;;;4988155;28;20431;-84
2022/09/03 05:31:13;;;;;;;3.83;3.53;;;24.70;34.20;;;;;;4983025;28;20465;-83
2022/09/03 05:33:44;;;;;;;3.50;3.27;;;24.60;34.30;;;;;;4981813;28;20937;-83
2022/09/03 05:36:13;;;;;;;4.00;3.70;;;24.70;34.30;;;;;;4987255;28;20500;-83
2022/09/03 05:38:41;;;;;;;3.77;3.47;;;24.70;34.30;;;;;;4979011;28;20504;-83
2022/09/03 05:41:11;;;;;;;3.73;3.43;;;24.70;34.30;;;;;;4988115;28;20421;-85
2022/09/03 05:43:42;;;;;;;3.40;3.20;;;24.70;34.30;;;;;;4979013;28;20428;-84
2022/09/03 05:46:12;;;;;;;4.07;3.23;;;24.70;34.30;;;;;;4987147;28;20476;-84
2022/09/03 05:48:41;;;;;;;3.60;3.40;;;24.60;34.20;;;;;;4979371;28;20428;-84
2022/09/03 05:51:11;;;;;;;3.40;3.17;;;24.70;34.20;;;;;;4981736;28;20482;-83
2022/09/03 05:53:39;;;;;;;3.67;3.37;;;24.70;34.30;;;;;;4985395;28;20456;-83
2022/09/03 05:56:09;;;;;;;3.47;3.27;;;24.70;34.20;;;;;;4977797;28;20452;-83
2022/09/03 05:58:40;;;;;;;3.90;3.10;;;24.70;34.30;;;;;;4977639;28;20518;-83
2022/09/03 06:01:13;;;;;;;3.23;3.03;;;24.70;34.30;;;;;;4978252;28;20452;-84
2022/09/03 06:03:41;;;;;;;3.33;3.03;;;24.70;34.30;;;;;;4983451;28;20511;-84
2022/09/03 06:06:09;;;;;;;3.30;3.10;;;24.70;34.30;;;;;;4982626;28;20493;-83
2022/09/03 06:08:37;;;;;;;3.13;2.90;;;24.70;34.20;;;;;;4981710;28;20437;-83
2022/09/03 06:11:05;;;;;;;3.03;2.83;;;24.80;34.20;;;;;;4982405;28;20421;-83
2022/09/03 06:13:33;;;;;;;3.10;2.90;;;24.80;34.10;;;;;;4979502;28;20434;-84
2022/09/03 06:16:04;;;;;;;3.23;3.03;;;24.80;34.10;;;;;;4984834;28;20456;-83
2022/09/03 06:18:32;;;;;;;3.57;3.37;;;24.80;34.10;;;;;;4975827;28;20444;-83
2022/09/03 06:21:02;;;;;;;2.57;2.47;;;24.90;34.10;;;;;;4989352;28;20472;-82
2022/09/03 06:23:30;;;;;;;2.93;2.73;;;24.90;34.00;;;;;;4994528;28;20511;-82
2022/09/03 06:26:02;;;;;;;2.87;2.70;;;25.00;34.00;;;;;;4985010;28;20481;-82
2022/09/03 06:28:33;;;;;;;2.70;2.60;;;25.00;34.00;;;;;;4986014;28;20472;-83
2022/09/03 06:31:02;;;;;;;3.00;2.80;;;24.90;33.90;;;;;;4992108;28;20470;-83
2022/09/03 06:33:31;;;;;;;3.17;2.97;;;25.00;34.00;;;;;;4986414;28;20907;-84
2022/09/03 06:35:59;;;;;;;2.73;2.53;;;25.10;34.10;;;;;;4976728;28;20505;-83
2022/09/03 06:38:30;;;;;;;3.47;3.17;;;25.10;33.90;;;;;;4987847;28;20424;-83
2022/09/03 06:41:00;;;;;;;2.50;2.30;;;25.10;33.90;;;;;;4977023;28;20461;-83
2022/09/03 06:43:29;;;;;;;4.30;2.53;;;25.10;33.80;;;;;;4986408;28;20456;-82
2022/09/03 06:45:57;;;;;;;2.40;2.30;;;25.20;33.90;;;;;;4987024;28;20494;-83
2022/09/03 06:48:27;;;;;;;2.87;2.73;;;25.20;33.80;;;;;;4985715;28;20434;-82
2022/09/03 06:50:56;;;;;;;2.53;2.40;;;25.20;33.70;;;;;;4990532;28;20486;-84
2022/09/03 06:53:25;;;;;;;2.13;2.03;;;25.20;33.90;;;;;;4983438;28;20480;-84
2022/09/03 06:56:00;;;;;;;2.67;2.53;;;25.20;33.80;;;;;;4982669;28;21059;-84
2022/09/03 06:58:28;;;;;;;2.40;2.30;;;25.20;33.80;;;;;;4982906;28;20464;-82
2022/09/03 07:01:01;;;;;;;2.47;2.37;;;25.20;33.80;;;;;;4987013;28;20454;-83
2022/09/03 07:03:31;;;;;;;2.30;2.20;;;25.20;33.80;;;;;;5001723;28;20463;-83
2022/09/03 07:06:03;;;;;;;2.23;2.13;;;25.20;33.80;;;;;;4993536;28;20501;-83
2022/09/03 07:08:32;;;;;;;3.43;2.47;;;25.20;33.80;;;;;;4991695;28;20431;-83
2022/09/03 07:11:00;;;;;;;2.50;2.40;;;25.20;33.90;;;;;;4983558;28;20458;-83
2022/09/03 07:13:28;;;;;;;2.23;2.13;;;25.30;33.90;;;;;;4986192;28;20476;-83
2022/09/03 07:16:01;;;;;;;2.27;2.17;;;25.30;33.80;;;;;;5002371;28;20471;-83
2022/09/03 07:18:31;;;;;;;2.10;2.00;;;25.30;33.90;;;;;;4992052;28;20518;-82
2022/09/03 07:21:00;;;;;;;2.60;2.20;;;25.30;33.90;;;;;;4989324;28;20529;-83
2022/09/03 07:23:28;;;;;;;2.30;2.03;;;25.30;33.90;;;;;;4985404;28;20448;-84
2022/09/03 07:25:56;;;;;;;2.30;2.10;;;25.30;33.80;;;;;;4990553;28;20497;-83
2022/09/03 07:28:25;;;;;;;2.40;2.30;;;25.30;33.70;;;;;;4983799;28;20433;-82
2022/09/03 07:30:53;;;;;;;2.30;2.13;;;25.40;33.80;;;;;;4993434;28;20944;-83
2022/09/03 07:33:21;;;;;;;2.73;2.53;;;25.40;33.80;;;;;;4987110;28;20421;-83
2022/09/03 07:35:51;;;;;;;2.23;2.13;;;25.40;33.80;;;;;;4997236;28;20509;-83
2022/09/03 07:38:19;;;;;;;2.27;2.17;;;25.40;33.70;;;;;;5001859;28;20449;-83
2022/09/03 07:40:47;;;;;;;2.37;2.00;;;25.40;33.70;;;;;;4993990;28;20454;-82
2022/09/03 07:43:16;;;;;;;2.10;2.00;;;25.50;33.80;;;;;;4989880;28;20859;-82
2022/09/03 07:45:50;;;;;;;2.10;2.00;;;25.50;33.80;;;;;;4992503;28;20482;-83
2022/09/03 07:48:18;;;;;;;2.30;2.20;;;25.60;33.80;;;;;;4992033;28;20476;-82
2022/09/03 07:50:46;;;;;;;2.10;2.00;;;25.60;33.70;;;;;;4993619;28;20476;-82
2022/09/03 07:53:19;;;;;;;3.30;2.03;;;25.80;33.70;;;;;;4991352;28;20456;-84
2022/09/03 07:55:48;;;;;;;2.90;2.40;;;25.80;33.70;;;;;;4983069;28;20444;-83
2022/09/03 07:58:21;;;;;;;2.13;1.80;;;25.90;33.60;;;;;;4986972;28;20500;-83
2022/09/03 08:00:49;;;;;;;2.10;2.00;;;26.10;33.70;;;;;;4982846;28;20457;-82
2022/09/03 08:03:18;;;;;;;2.03;1.93;;;26.20;33.50;;;;;;4983381;28;20514;-81
2022/09/03 08:05:46;;;;;;;2.00;1.90;;;26.40;33.40;;;;;;4987645;28;20544;-82
2022/09/03 08:08:14;;;;;;;2.07;1.97;;;26.50;33.30;;;;;;4988034;28;20420;-83
2022/09/03 08:10:44;;;;;;;1.97;1.87;;;26.70;33.20;;;;;;4991302;28;20445;-84
2022/09/03 08:13:12;;;;;;;2.03;1.93;;;26.90;33.10;;;;;;4990728;28;20475;-84
2022/09/03 08:15:41;;;;;;;2.20;2.00;;;27.10;33.00;;;;;;4988990;28;20444;-84
2022/09/03 08:18:10;;;;;;;2.07;1.97;;;27.40;32.90;;;;;;4987483;28;20598;-84
2022/09/03 08:20:39;;;;;;;1.90;1.80;;;27.50;32.80;;;;;;4988851;28;20437;-85
2022/09/03 08:23:10;;;;;;;2.03;1.93;;;27.70;32.60;;;;;;4989879;28;20424;-84
2022/09/03 08:25:38;;;;;;;1.80;1.70;;;27.90;32.40;;;;;;4988285;28;20473;-84
2022/09/03 08:28:08;;;;;;;5.13;1.80;;;28.20;32.40;;;;;;4987369;28;20442;-84
2022/09/03 08:30:37;;;;;;;1.43;1.40;;;28.40;32.20;;;;;;5000496;28;20461;-84
2022/09/03 08:33:07;;;;;;;2.90;1.60;;;28.60;32.00;;;;;;4987755;28;20446;-84
2022/09/03 08:35:38;;;;;;;6.40;2.00;;;28.90;31.80;;;;;;4989928;28;20485;-84
2022/09/03 08:38:07;;;;;;;1.60;1.50;;;29.10;31.60;;;;;;5007931;28;20434;-84
2022/09/03 08:40:38;;;;;;;1.53;1.47;;;29.30;31.50;;;;;;4994442;28;20544;-85
2022/09/03 08:43:12;;;;;;;1.50;1.50;;;29.50;31.40;;;;;;4997751;28;20486;-85
2022/09/03 08:45:46;;;;;;;1.77;1.67;;;29.70;31.10;;;;;;4978965;28;20465;-85
2022/09/03 08:48:16;;;;;;;1.40;1.40;;;30.00;31.10;;;;;;4979007;28;20472;-84
2022/09/03 08:50:45;;;;;;;1.60;1.50;;;30.20;30.90;;;;;;4992098;28;20449;-84
2022/09/03 08:53:16;;;;;;;2.00;1.40;;;30.40;30.80;;;;;;4986802;28;20434;-84
2022/09/03 08:55:57;;;;;;;1.77;1.67;;;30.60;30.70;;;;;;4991260;28;20481;-85
2022/09/03 08:58:28;;;;;;;1.47;1.27;;;30.80;30.60;;;;;;4981071;28;21008;-84
2022/09/03 09:01:00;;;;;;;1.67;1.57;;;31.00;30.40;;;;;;4978693;28;20454;-84
2022/09/03 09:03:47;;;;;;;1.27;1.27;;;31.20;30.30;;;;;;4985693;28;20450;-84
2022/09/03 09:06:23;;;;;;;1.70;1.60;;;31.40;30.20;;;;;;4978971;28;20473;-85
2022/09/03 09:08:59;;;;;;;1.50;1.40;;;31.60;30.00;;;;;;5000349;28;20854;-85
2022/09/03 09:11:33;;;;;;;2.40;1.47;;;31.80;30.00;;;;;;5004016;28;20465;-84
2022/09/03 09:14:04;;;;;;;1.40;1.40;;;32.00;30.00;;;;;;4980307;28;20524;-84
2022/09/03 09:16:38;;;;;;;1.40;1.40;;;32.20;29.80;;;;;;4993903;28;20492;-85
2022/09/03 09:19:13;;;;;;;2.00;1.50;;;32.40;29.80;;;;;;4985807;28;20454;-84
2022/09/03 09:21:44;;;;;;;1.63;1.40;;;32.60;29.70;;;;;;4984093;28;20448;-84
2022/09/03 09:24:18;;;;;;;1.47;1.37;;;32.80;29.70;;;;;;4985652;28;20460;-84
2022/09/03 09:26:46;;;;;;;1.33;1.20;;;33.00;29.50;;;;;;4978280;28;20493;-85
2022/09/03 09:29:15;;;;;;;2.83;1.10;;;33.20;29.50;;;;;;4978276;28;20470;-86
2022/09/03 09:31:45;;;;;;;1.50;1.20;;;33.40;29.40;;;;;;4991312;28;20802;-83
2022/09/03 09:34:13;;;;;;;2.60;1.40;;;33.50;29.30;;;;;;4980727;28;20442;-84
2022/09/03 09:36:46;;;;;;;1.57;1.47;;;33.70;29.20;;;;;;4987395;28;20454;-84
2022/09/03 09:39:15;;;;;;;1.10;1.10;;;33.90;29.10;;;;;;4985238;28;20449;-84
2022/09/03 09:41:44;;;;;;;1.30;1.30;;;34.10;29.10;;;;;;4982541;28;20545;-85
2022/09/03 09:44:20;;;;;;;1.20;1.20;;;34.30;29.00;;;;;;4975984;28;20577;-84
2022/09/03 09:46:48;;;;;;;1.30;1.20;;;34.40;28.90;;;;;;4977391;28;20446;-85
2022/09/03 09:49:29;;;;;;;1.10;1.10;;;34.60;28.80;;;;;;4976252;28;20446;-85
2022/09/03 09:52:06;;;;;;;1.30;1.20;;;34.80;28.70;;;;;;5003563;28;20445;-88
2022/09/03 09:54:34;;;;;;;1.20;1.20;;;35.00;28.70;;;;;;5001102;28;20460;-83
2022/09/03 09:57:03;;;;;;;2.30;1.20;;;35.20;28.60;;;;;;4993864;28;20480;-84
2022/09/03 09:59:33;;;;;;;1.40;1.30;;;35.30;28.50;;;;;;4992551;28;20481;-84
2022/09/03 10:02:11;;;;;;;2.00;0.90;;;35.50;28.40;;;;;;4995130;28;20540;-85
2022/09/03 10:04:49;;;;;;;2.20;2.07;;;35.70;28.30;;;;;;4984567;28;20525;-76
2022/09/03 10:07:22;;;;;;;12.57;2.73;;;35.10;25.50;;;;;;4979423;28;20469;-75
2022/09/03 10:10:01;;;;;;;7.63;2.47;;;34.10;26.60;;;;;;4993040;28;20437;-76
2022/09/03 10:12:34;;;;;;;4.80;2.70;;;33.40;27.30;;;;;;4992886;28;20536;-76
2022/09/03 10:15:12;;;;;;;10.20;2.20;;;33.00;27.60;;;;;;4993483;28;20457;-75
2022/09/03 10:17:45;;;;;;;3.10;2.43;;;32.70;28.50;;;;;;4992913;28;20457;-76
2022/09/03 10:20:30;;;;;;;12.63;3.13;;;32.40;28.60;;;;;;4993195;28;20441;-76
2022/09/03 10:23:01;;;;;;;3.87;2.23;;;32.10;29.10;;;;;;4997201;28;20418;-77
2022/09/03 10:25:37;;;;;;;7.93;2.50;;;32.00;28.60;;;;;;4997120;28;20457;-77
2022/09/03 10:28:07;;;;;;;3.77;2.40;;;31.90;28.80;;;;;;4996991;28;20508;-76
2022/09/03 10:30:45;;;;;;;3.37;1.97;;;31.90;29.10;;;;;;4996951;28;20500;-77
2022/09/03 10:33:16;;;;;;;6.50;2.80;;;31.80;29.10;;;;;;4997310;28;20441;-77
2022/09/03 10:35:46;;;;;;;3.33;1.30;;;31.70;28.90;;;;;;4995768;28;20479;-80
2022/09/03 10:38:17;;;;;;;2.60;2.40;;;31.60;27.80;;;;;;4983312;28;20478;-79
2022/09/03 10:40:50;;;;;;;7.10;2.53;;;31.50;28.80;;;;;;4979837;28;20482;-78
2022/09/03 10:43:28;;;;;;;2.60;2.10;;;31.60;28.80;;;;;;4982286;28;20513;-80
2022/09/03 10:46:02;;;;;;;5.33;1.87;;;31.40;28.40;;;;;;4989837;28;20472;-81
2022/09/03 10:49:14;;;;;;;3.27;1.60;;;31.30;27.90;;;;;;4980725;28;20470;-81
2022/09/03 10:51:42;;;;;;;17.35;2.40;;;31.50;27.80;;;;;;4906006;29;20453;-79
2022/09/03 10:54:27;;;;;;;6.03;2.00;;;31.50;29.10;;;;;;4919899;29;20265;-77
2022/09/03 10:57:00;;;;;;;4.70;1.60;;;31.00;28.90;;;;;;4953631;28;20542;-76
2022/09/03 10:59:36;;;;;;;2.77;1.53;;;30.90;28.60;;;;;;4986082;28;20562;-77
2022/09/03 11:02:17;;;;;;;2.97;2.80;;;30.80;29.40;;;;;;4977958;28;20440;-77
2022/09/03 11:04:48;;;;;;;5.23;2.00;;;30.80;28.70;;;;;;4977056;28;20470;-77
2022/09/03 11:07:18;;;;;;;1.40;1.30;;;30.60;27.70;;;;;;4977355;28;20529;-77
2022/09/03 11:09:48;;;;;;;3.53;1.50;;;30.10;28.70;;;;;;4977083;28;21037;-78
2022/09/03 11:12:21;;;;;;;2.13;1.27;;;30.50;28.50;;;;;;4978061;28;20529;-78
2022/09/03 11:14:50;;;;;;;1.50;1.40;;;30.50;28.10;;;;;;4977160;28;20569;-77
2022/09/03 11:17:22;;;;;;;3.23;1.30;;;30.60;28.20;;;;;;4976538;28;20458;-77
2022/09/03 11:19:52;;;;;;;3.63;1.50;;;30.90;27.80;;;;;;4976255;28;20562;-78
2022/09/03 11:22:22;;;;;;;2.97;1.20;;;31.10;27.90;;;;;;4976555;28;20549;-78
2022/09/03 11:24:53;;;;;;;1.50;1.40;;;31.00;27.00;;;;;;4987585;28;20564;-77
2022/09/03 11:27:31;;;;;;;1.30;1.10;;;30.90;27.70;;;;;;4995910;28;20456;-77
2022/09/03 11:30:00;;;;;;;3.53;1.10;;;30.90;27.40;;;;;;4990207;28;20450;-77
2022/09/03 11:32:33;;;;;;;3.37;1.20;;;30.00;26.60;;;;;;4974973;28;20446;-77
2022/09/03 11:35:01;;;;;;;3.23;1.30;;;29.80;26.90;;;;;;4975634;28;20522;-77
2022/09/03 11:37:29;;;;;;;1.97;1.40;;;30.50;27.60;;;;;;4975990;28;20446;-77
2022/09/03 11:39:58;;;;;;;1.30;1.30;;;30.90;27.50;;;;;;4975932;28;20477;-77
2022/09/03 11:42:32;;;;;;;5.80;3.50;;;31.20;27.20;;;;;;4976178;28;20450;-77
2022/09/03 11:45:13;;;;;;;14.97;1.60;;;31.40;27.10;;;;;;4976355;28;20497;-77
2022/09/03 11:47:43;;;;;;;3.20;1.30;;;32.60;26.60;;;;;;4992006;28;20532;-76
2022/09/03 11:50:19;;;;;;;3.17;1.00;;;34.90;24.60;;;;;;4995136;28;20533;-77
2022/09/03 11:52:48;;;;;;;3.43;0.90;;;36.70;22.80;;;;;;4995143;28;20436;-76
2022/09/03 11:55:30;;;;;;;3.23;1.83;;;38.00;21.80;;;;;;4977230;28;20451;-76
2022/09/03 11:58:12;;;;;;;2.30;1.27;;;38.50;21.40;;;;;;4975707;28;20438;-75
2022/09/03 12:00:42;;;;;;;4.18;1.40;;;38.90;20.40;;;;;;4974899;28;20475;-76
2022/09/03 12:03:14;;;;;;;5.17;1.37;;;36.60;20.70;;;;;;4975659;28;20687;-76
2022/09/03 12:05:45;;;;;;;4.30;1.30;;;35.50;23.20;;;;;;4975348;28;20466;-76
2022/09/03 12:08:45;;;;;;;2.17;1.50;;;34.70;23.60;;;;;;4975684;28;20438;-79
2022/09/03 12:11:25;;;;;;;7.13;1.50;;;34.10;24.30;;;;;;4975202;28;20453;-77
2022/09/03 12:13:55;;;;;;;5.30;1.10;;;33.70;24.50;;;;;;4975376;28;20537;-76
2022/09/03 12:16:39;;;;;;;7.10;1.33;;;33.50;25.00;;;;;;4991817;28;20469;-76
2022/09/03 12:19:11;;;;;;;3.00;1.23;;;33.20;25.10;;;;;;4994605;28;20857;-76
2022/09/03 12:21:39;;;;;;;3.03;1.47;;;33.10;24.70;;;;;;4994860;28;20456;-75
2022/09/03 12:24:12;;;;;;;1.30;1.30;;;32.90;24.80;;;;;;4994271;28;20986;-75
2022/09/03 12:26:41;;;;;;;2.93;1.20;;;32.80;25.50;;;;;;4994719;28;20585;-74
2022/09/03 12:29:21;;;;;;;1.20;1.10;;;33.00;25.20;;;;;;4994800;28;20444;-76
2022/09/03 12:31:55;;;;;;;2.40;0.93;;;33.00;25.40;;;;;;4994275;28;20488;-76
2022/09/03 12:34:26;;;;;;;1.13;1.03;;;33.00;25.40;;;;;;4994203;28;20537;-75
2022/09/03 12:36:54;;;;;;;5.57;1.30;;;32.80;25.60;;;;;;4994096;28;20448;-76
2022/09/03 12:39:23;;;;;;;2.10;1.10;;;32.70;25.70;;;;;;4993985;28;20533;-75
2022/09/03 12:42:13;;;;;;;1.77;1.23;;;32.60;25.70;;;;;;4975411;28;20453;-76
2022/09/03 12:44:41;;;;;;;1.27;1.17;;;32.50;25.80;;;;;;4974780;28;20474;-76
2022/09/03 12:47:11;;;;;;;1.50;1.40;;;32.40;25.90;;;;;;4984585;28;20448;-76
2022/09/03 12:50:06;;;;;;;1.20;1.10;;;32.30;25.60;;;;;;4993960;28;20438;-76
2022/09/03 12:52:35;;;;;;;8.23;1.10;;;32.30;25.80;;;;;;4988959;28;20438;-76
2022/09/03 12:55:05;;;;;;;1.47;1.37;;;32.30;25.70;;;;;;4974414;28;20477;-76
2022/09/03 12:57:34;;;;;;;1.53;1.43;;;32.20;26.10;;;;;;4970482;28;20557;-76
2022/09/03 13:00:05;;;;;;;1.57;1.20;;;32.20;26.20;;;;;;4973870;28;21027;-75
2022/09/03 13:02:36;;;;;;;1.10;1.10;;;32.10;26.20;;;;;;4974408;28;20437;-76
2022/09/03 13:05:06;;;;;;;4.30;1.30;;;32.30;26.40;;;;;;4975261;28;20541;-74
2022/09/03 13:07:36;;;;;;;2.00;1.20;;;32.50;26.20;;;;;;4976011;28;20445;-76
2022/09/03 13:10:06;;;;;;;2.30;1.10;;;32.50;25.90;;;;;;4974508;28;20453;-76